createdAt,value
2024-03-27T00:01:50.744Z,4.60
2024-03-27T00:06:55.697Z,5.40
2024-03-27T00:11:57.678Z,5.90
2024-03-27T00:16:59.803Z,5.60
2024-03-27T00:22:01.806Z,5.60
2024-03-27T00:27:04.692Z,5.00
2024-03-27T00:32:06.731Z,4.80
2024-03-27T00:37:08.723Z,5.10
2024-03-27T00:42:10.594Z,4.90
2024-03-27T00:47:12.303Z,4.80
2024-03-27T00:52:14.058Z,4.70
2024-03-27T00:57:15.851Z,5.70
2024-03-27T01:02:17.911Z,5.80
2024-03-27T01:07:19.687Z,7.70
2024-03-27T01:12:21.683Z,6.50
2024-03-27T01:17:23.499Z,4.40
2024-03-27T01:22:25.147Z,5.70
2024-03-27T01:27:27.227Z,5.60
2024-03-27T01:32:28.985Z,14.80
2024-03-27T01:37:30.820Z,7.00
2024-03-27T01:42:35.918Z,5.90
2024-03-27T01:47:37.846Z,5.70
2024-03-27T01:52:41.415Z,6.20
2024-03-27T01:57:44.632Z,5.80
2024-03-27T02:02:47.635Z,5.70
2024-03-27T02:07:49.410Z,5.80
2024-03-27T02:12:51.289Z,6.30
2024-03-27T02:17:52.915Z,5.20
2024-03-27T02:22:59.900Z,4.40
2024-03-27T02:28:01.702Z,5.90
2024-03-27T02:33:03.565Z,5.40
2024-03-27T02:38:05.224Z,4.10
2024-03-27T02:43:07.098Z,4.90
2024-03-27T02:48:08.850Z,4.30
2024-03-27T02:53:10.625Z,4.40
2024-03-27T02:58:12.410Z,4.70
2024-03-27T03:03:14.183Z,4.40
2024-03-27T03:08:15.823Z,4.20
2024-03-27T03:13:17.530Z,3.80
2024-03-27T03:18:19.409Z,4.20
2024-03-27T03:23:21.187Z,4.40
2024-03-27T03:28:23.477Z,4.00
2024-03-27T03:33:25.184Z,4.80
2024-03-27T03:38:29.595Z,5.70
2024-03-27T03:43:31.397Z,4.40
2024-03-27T03:48:33.664Z,4.60
2024-03-27T03:53:35.422Z,4.80
2024-03-27T03:58:37.104Z,4.90
2024-03-27T04:03:38.769Z,4.30
2024-03-27T04:08:40.499Z,4.70
2024-03-27T04:13:42.264Z,4.20
2024-03-27T04:18:44.259Z,4.60
2024-03-27T04:23:46.613Z,4.40
2024-03-27T04:28:48.260Z,3.70
2024-03-27T04:33:51.090Z,3.50
2024-03-27T04:38:53.616Z,3.50
2024-03-27T04:43:55.460Z,4.00
2024-03-27T04:48:57.087Z,5.60
2024-03-27T04:53:58.766Z,7.40
2024-03-27T04:59:00.570Z,7.50
2024-03-27T05:04:03.389Z,5.90
2024-03-27T05:09:05.062Z,5.70
2024-03-27T05:14:06.942Z,6.50
2024-03-27T05:19:08.741Z,6.10
2024-03-27T05:24:11.351Z,5.40
2024-03-27T05:29:13.914Z,4.70
2024-03-27T05:34:17.071Z,4.90
2024-03-27T05:39:20.188Z,4.70
2024-03-27T05:44:22.020Z,4.80
2024-03-27T05:49:25.563Z,4.60
2024-03-27T05:54:27.305Z,3.30
2024-03-27T05:59:29.113Z,3.70
2024-03-27T06:04:31.689Z,3.80
2024-03-27T06:09:33.662Z,3.60
2024-03-27T06:14:35.450Z,5.40
2024-03-27T06:19:37.124Z,5.40
2024-03-27T06:24:38.918Z,4.60
2024-03-27T06:29:40.873Z,5.10
2024-03-27T06:34:42.467Z,4.60
2024-03-27T06:39:44.138Z,4.10
2024-03-27T06:49:48.420Z,16.50
2024-03-27T06:54:51.909Z,5.30
2024-03-27T06:59:53.587Z,3.30
2024-03-27T07:04:56.841Z,3.50
2024-03-27T07:09:59.813Z,2.80
2024-03-27T07:15:01.650Z,2.50
2024-03-27T07:20:05.871Z,2.00
2024-03-27T07:25:08.374Z,2.20
2024-03-27T07:30:12.972Z,2.40
2024-03-27T07:35:15.014Z,2.60
2024-03-27T07:40:16.779Z,2.60
2024-03-27T07:45:18.926Z,9.60
2024-03-27T07:50:20.582Z,2.60
2024-03-27T07:55:22.965Z,2.10
2024-03-27T08:00:24.741Z,2.60
2024-03-27T08:05:26.624Z,2.60
2024-03-27T08:10:30.893Z,2.60
2024-03-27T08:15:32.681Z,2.20
2024-03-27T08:20:34.615Z,2.20
2024-03-27T08:25:36.623Z,2.90
2024-03-27T08:30:38.375Z,2.60
2024-03-27T08:35:40.768Z,2.30
2024-03-27T08:40:42.763Z,2.40
2024-03-27T08:45:45.276Z,2.60
2024-03-27T08:50:47.631Z,2.00
2024-03-27T08:55:49.516Z,2.50
2024-03-27T09:00:51.601Z,2.20
2024-03-27T09:05:56.075Z,2.20
2024-03-27T09:10:59.380Z,3.30
2024-03-27T09:16:01.141Z,2.20
2024-03-27T09:21:03.017Z,2.20
2024-03-27T09:26:06.143Z,1.90
2024-03-27T09:31:09.031Z,1.80
2024-03-27T09:36:15.450Z,1.70
2024-03-27T09:41:17.175Z,2.40
2024-03-27T09:46:18.962Z,1.90
2024-03-27T09:51:21.763Z,1.80
2024-03-27T09:56:23.436Z,1.70
2024-03-27T10:01:34.772Z,1.50
2024-03-27T10:06:43.438Z,1.70
2024-03-27T10:11:45.165Z,2.10
2024-03-27T10:16:46.944Z,1.30
2024-03-27T10:21:48.882Z,1.70
2024-03-27T10:26:52.699Z,1.90
2024-03-27T10:31:55.166Z,1.80
2024-03-27T10:36:57.713Z,1.50
2024-03-27T10:41:59.641Z,1.30
2024-03-27T10:47:06.264Z,1.60
2024-03-27T10:52:10.757Z,1.80
2024-03-27T10:57:14.418Z,1.40
2024-03-27T11:02:19.349Z,1.70
2024-03-27T11:07:21.695Z,2.00
2024-03-27T11:12:24.471Z,1.70
2024-03-27T11:17:30.081Z,1.70
2024-03-27T11:22:32.073Z,1.80
2024-03-27T11:27:33.777Z,1.50
2024-03-27T11:32:40.218Z,1.40
2024-03-27T11:37:42.302Z,2.20
2024-03-27T11:42:44.177Z,1.80
2024-03-27T11:47:47.094Z,1.50
2024-03-27T11:57:50.807Z,2.10
2024-03-27T12:02:53.079Z,1.30
2024-03-27T12:07:55.010Z,1.60
2024-03-27T12:12:56.877Z,1.30
2024-03-27T12:18:01.905Z,2.20
2024-03-27T12:23:04.106Z,2.00
2024-03-27T12:28:08.735Z,1.80
2024-03-27T12:33:10.756Z,1.70
2024-03-27T12:38:13.251Z,2.00
2024-03-27T12:43:14.956Z,2.40
2024-03-27T12:48:21.694Z,2.00
2024-03-27T12:53:24.031Z,2.00
2024-03-27T12:58:25.704Z,1.90
2024-03-27T13:03:27.493Z,1.50
2024-03-27T13:08:29.313Z,2.20
2024-03-27T13:13:32.272Z,2.00
2024-03-27T13:28:40.077Z,1.90
2024-03-27T13:33:41.782Z,1.70
2024-03-27T13:38:43.593Z,2.30
2024-03-27T13:43:45.365Z,2.40
2024-03-27T13:48:50.164Z,1.90
2024-03-27T13:53:52.094Z,1.60
2024-03-27T13:58:53.872Z,2.10
2024-03-27T14:03:55.557Z,1.50
2024-03-27T14:08:57.215Z,1.20
2024-03-27T14:14:01.878Z,1.30
2024-03-27T14:19:04.762Z,1.20
2024-03-27T14:24:08.702Z,1.40
2024-03-27T14:29:10.410Z,1.10
2024-03-27T14:34:12.253Z,1.50
2024-03-27T14:39:16.533Z,1.70
2024-03-27T14:44:20.928Z,1.80
2024-03-27T14:49:25.912Z,1.90
2024-03-27T14:54:27.556Z,2.00
2024-03-27T14:59:29.331Z,1.60
2024-03-27T15:04:31.111Z,1.70
2024-03-27T15:09:40.985Z,1.50
2024-03-27T15:14:47.464Z,1.10
2024-03-27T15:19:50.395Z,1.10
2024-03-27T15:24:52.151Z,1.20
2024-03-27T15:29:53.879Z,1.40
2024-03-27T15:34:56.316Z,1.00
2024-03-27T15:39:58.123Z,1.10
2024-03-27T15:45:00.815Z,1.50
2024-03-27T15:50:03.227Z,1.40
2024-03-27T15:55:05.785Z,2.00
2024-03-27T16:00:10.748Z,1.50
2024-03-27T16:05:15.294Z,1.40
2024-03-27T16:10:17.386Z,1.60
2024-03-27T16:15:19.172Z,1.70
2024-03-27T16:20:20.891Z,1.60
2024-03-27T16:25:22.584Z,2.00
2024-03-27T16:30:24.869Z,2.20
2024-03-27T16:35:26.550Z,1.80
2024-03-27T16:40:28.333Z,1.50
2024-03-27T16:45:30.118Z,2.10
2024-03-27T16:50:31.986Z,2.20
2024-03-27T16:55:33.691Z,2.10
2024-03-27T17:00:44.554Z,1.90
2024-03-27T17:05:53.022Z,2.00
2024-03-27T17:10:54.672Z,2.30
2024-03-27T17:15:56.575Z,3.90
2024-03-27T17:20:58.347Z,3.60
2024-03-27T17:26:00.117Z,8.50
2024-03-27T17:31:02.135Z,11.40
2024-03-27T17:36:04.582Z,13.00
2024-03-27T17:41:06.450Z,5.80
2024-03-27T17:46:08.532Z,7.00
2024-03-27T17:51:10.355Z,5.60
2024-03-27T17:56:12.616Z,5.10
2024-03-27T18:01:15.913Z,4.80
2024-03-27T18:06:17.693Z,4.50
2024-03-27T18:11:19.467Z,5.70
2024-03-27T18:16:24.784Z,5.80
2024-03-27T18:21:26.605Z,3.60
2024-03-27T18:26:28.792Z,4.00
2024-03-27T18:31:30.497Z,4.40
2024-03-27T18:36:33.687Z,4.10
2024-03-27T18:41:35.372Z,4.10
2024-03-27T18:46:38.676Z,4.60
2024-03-27T18:51:40.444Z,5.20
2024-03-27T18:56:42.472Z,5.90
2024-03-27T19:01:44.206Z,7.90
2024-03-27T19:06:55.402Z,7.50
2024-03-27T19:11:57.391Z,7.00
2024-03-27T19:16:59.171Z,8.20
2024-03-27T19:22:02.390Z,8.60
2024-03-27T19:27:06.881Z,13.70
2024-03-27T19:32:08.795Z,10.60
2024-03-27T19:37:10.426Z,14.60
2024-03-27T19:42:12.764Z,17.30
2024-03-27T19:47:14.460Z,11.60
2024-03-27T19:52:26.216Z,5.40
2024-03-27T19:57:31.203Z,4.90
2024-03-27T20:02:33.284Z,8.10
2024-03-27T20:07:35.434Z,5.20
2024-03-27T20:12:37.553Z,7.70
2024-03-27T20:17:39.227Z,13.10
2024-03-27T20:22:40.859Z,10.50
2024-03-27T20:27:52.715Z,7.50
2024-03-27T20:32:54.621Z,6.20
2024-03-27T20:37:56.679Z,4.80
2024-03-27T20:43:00.913Z,4.90
2024-03-27T20:48:03.009Z,4.10
2024-03-27T20:53:05.394Z,6.20
2024-03-27T20:58:08.877Z,6.60
2024-03-27T21:03:10.683Z,4.80
2024-03-27T21:08:12.359Z,4.40
2024-03-27T21:13:14.073Z,4.30
2024-03-27T21:18:15.920Z,5.20
2024-03-27T21:23:17.626Z,6.20
2024-03-27T21:28:19.436Z,6.10
2024-03-27T21:33:21.091Z,7.30
2024-03-27T21:38:22.916Z,7.30
2024-03-27T21:43:25.522Z,7.50
2024-03-27T21:48:27.396Z,6.90
2024-03-27T21:53:30.129Z,7.20
2024-03-27T21:58:31.832Z,6.20
2024-03-27T22:03:33.561Z,6.20
2024-03-27T22:08:39.800Z,7.20
2024-03-27T22:13:41.469Z,6.50
2024-03-27T22:18:43.216Z,7.20
2024-03-27T22:23:44.884Z,8.40
2024-03-27T22:28:46.632Z,7.00
2024-03-27T22:33:48.310Z,6.60
2024-03-27T22:38:50.086Z,6.80
2024-03-27T22:43:56.172Z,8.80
2024-03-27T22:49:01.676Z,7.20
2024-03-27T22:54:04.251Z,7.90
2024-03-27T22:59:06.006Z,7.00
2024-03-27T23:04:07.881Z,9.30
2024-03-27T23:09:09.762Z,8.70
2024-03-27T23:14:11.540Z,7.70
2024-03-27T23:19:13.328Z,6.50
2024-03-27T23:24:15.195Z,6.60
2024-03-27T23:29:16.996Z,5.90
2024-03-27T23:34:18.762Z,5.80
2024-03-27T23:39:21.372Z,5.90
2024-03-27T23:44:23.344Z,6.60
2024-03-27T23:49:25.211Z,4.90
2024-03-27T23:54:26.984Z,5.80
2024-03-27T23:59:28.772Z,6.40
